createdAt,value
2019-02-23T00:00:58.422Z,73.27
2019-02-23T00:03:46.372Z,73.37
2019-02-23T00:06:33.882Z,73.33
2019-02-23T00:09:21.615Z,72.87
2019-02-23T00:12:09.247Z,74.02
2019-02-23T00:14:56.977Z,73.26
2019-02-23T00:17:45.111Z,72.84
2019-02-23T00:20:32.129Z,73.22
2019-02-23T00:23:19.245Z,74.07
2019-02-23T00:26:07.213Z,74.92
2019-02-23T00:28:54.810Z,74.29
2019-02-23T00:31:42.333Z,74.11
2019-02-23T00:34:29.866Z,73.86
2019-02-23T00:37:17.387Z,74.78
2019-02-23T00:40:05.736Z,75.16
2019-02-23T00:42:53.054Z,74.84
2019-02-23T00:45:42.631Z,74.89
2019-02-23T00:48:30.257Z,75.23
2019-02-23T00:51:17.659Z,75.84
2019-02-23T00:54:05.220Z,76.89
2019-02-23T00:56:52.501Z,77.43
2019-02-23T00:59:39.953Z,77.65
2019-02-23T01:02:27.788Z,76.80
2019-02-23T01:05:15.213Z,76.02
2019-02-23T01:08:02.841Z,75.49
2019-02-23T01:10:57.685Z,76.42
2019-02-23T01:13:39.373Z,76.13
2019-02-23T01:16:26.698Z,75.97
2019-02-23T01:19:13.977Z,76.44
2019-02-23T01:22:01.701Z,76.14
2019-02-23T01:24:49.431Z,74.39
2019-02-23T01:27:36.754Z,74.64
2019-02-23T01:30:24.792Z,74.03
2019-02-23T01:33:12.524Z,72.06
2019-02-23T01:36:00.461Z,70.58
2019-02-23T01:38:47.987Z,69.97
2019-02-23T01:41:35.923Z,68.36
2019-02-23T01:44:23.455Z,68.43
2019-02-23T01:47:11.284Z,68.03
2019-02-23T01:49:59.371Z,69.09
2019-02-23T01:52:47.436Z,69.93
2019-02-23T01:55:35.295Z,70.17
2019-02-23T01:58:22.308Z,69.50
2019-02-23T02:01:09.941Z,69.35
2019-02-23T02:03:57.567Z,68.85
2019-02-23T02:06:45.299Z,67.77
2019-02-23T02:09:32.519Z,66.67
2019-02-23T02:12:30.489Z,66.72
2019-02-23T02:15:18.632Z,67.84
2019-02-23T02:18:06.361Z,68.19
2019-02-23T02:20:53.991Z,69.21
2019-02-23T02:23:41.416Z,71.39
2019-02-23T02:26:28.433Z,70.95
2019-02-23T02:29:16.058Z,68.90
2019-02-23T02:32:03.482Z,68.62
2019-02-23T02:34:50.604Z,67.83
2019-02-23T02:37:37.624Z,66.16
2019-02-23T02:40:25.140Z,65.82
2019-02-23T02:43:12.780Z,66.41
2019-02-23T02:46:00.505Z,66.58
2019-02-23T02:48:48.332Z,67.60
2019-02-23T02:51:35.566Z,68.60
2019-02-23T02:54:23.594Z,70.36
2019-02-23T02:57:11.221Z,72.75
2019-02-23T02:59:58.954Z,74.24
2019-02-23T03:02:46.374Z,73.93
2019-02-23T03:05:34.106Z,73.90
2019-02-23T03:08:21.719Z,72.80
2019-02-23T03:11:09.363Z,70.81
2019-02-23T03:13:56.996Z,70.08
2019-02-23T03:16:44.525Z,70.12
2019-02-23T03:19:31.949Z,69.46
2019-02-23T03:22:19.376Z,68.77
2019-02-23T03:25:07.400Z,68.82
2019-02-23T03:27:54.932Z,69.86
2019-02-23T03:30:42.869Z,67.98
2019-02-23T03:33:30.611Z,66.63
2019-02-23T03:36:17.680Z,66.20
2019-02-23T03:39:05.532Z,65.32
2019-02-23T03:41:52.974Z,64.88
2019-02-23T03:44:40.095Z,65.63
2019-02-23T03:47:27.516Z,64.79
2019-02-23T03:50:15.146Z,65.03
2019-02-23T03:53:02.056Z,65.03
2019-02-23T03:55:49.487Z,64.67
2019-02-23T03:58:37.006Z,64.25
2019-02-23T04:01:24.432Z,63.76
2019-02-23T04:04:12.014Z,63.67
2019-02-23T04:06:59.287Z,64.59
2019-02-23T04:09:46.907Z,64.81
2019-02-23T04:12:36.368Z,64.20
2019-02-23T04:15:23.580Z,64.19
2019-02-23T04:18:11.154Z,63.88
2019-02-23T04:21:02.051Z,63.60
2019-02-23T04:23:48.332Z,63.46
2019-02-23T04:26:35.751Z,62.91
2019-02-23T04:29:22.970Z,62.76
2019-02-23T04:32:10.497Z,62.30
2019-02-23T04:34:58.147Z,62.13
2019-02-23T04:37:45.805Z,62.17
2019-02-23T04:40:32.875Z,61.96
2019-02-23T04:43:20.199Z,61.74
2019-02-23T04:46:08.175Z,61.76
2019-02-23T04:48:55.349Z,61.79
2019-02-23T04:51:43.118Z,61.73
2019-02-23T04:54:32.450Z,61.88
2019-02-23T04:57:19.980Z,61.87
2019-02-23T05:00:10.988Z,61.89
2019-02-23T05:02:58.101Z,61.65
2019-02-23T05:05:45.842Z,61.45
2019-02-23T05:08:33.259Z,61.46
2019-02-23T05:11:20.887Z,61.69
2019-02-23T05:14:08.005Z,62.07
2019-02-23T05:16:55.837Z,62.26
2019-02-23T05:19:43.366Z,63.24
2019-02-23T05:22:30.384Z,63.75
2019-02-23T05:25:17.904Z,63.43
2019-02-23T05:28:05.224Z,63.45
2019-02-23T05:30:52.647Z,64.07
2019-02-23T05:33:40.280Z,63.73
2019-02-23T05:36:28.015Z,63.65
2019-02-23T05:39:17.786Z,63.31
2019-02-23T05:42:04.316Z,62.79
2019-02-23T05:44:52.021Z,62.09
2019-02-23T05:47:39.857Z,61.67
2019-02-23T05:50:27.280Z,61.46
2019-02-23T05:53:14.705Z,61.42
2019-02-23T05:56:02.229Z,61.34
2019-02-23T05:58:49.245Z,61.23
2019-02-23T06:01:36.772Z,61.08
2019-02-23T06:04:24.298Z,60.84
2019-02-23T06:07:12.027Z,61.02
2019-02-23T06:09:59.557Z,61.14
2019-02-23T06:12:47.284Z,61.21
2019-02-23T06:15:34.712Z,61.21
2019-02-23T06:18:22.378Z,61.16
2019-02-23T06:21:09.765Z,61.17
2019-02-23T06:23:57.496Z,61.18
2019-02-23T06:26:44.720Z,61.10
2019-02-23T06:29:31.830Z,61.01
2019-02-23T06:32:19.153Z,61.05
2019-02-23T06:35:08.664Z,61.03
2019-02-23T06:37:56.154Z,61.04
2019-02-23T06:40:43.880Z,61.03
2019-02-23T06:43:31.508Z,61.08
2019-02-23T06:46:18.633Z,61.29
2019-02-23T06:49:06.055Z,61.38
2019-02-23T06:52:03.773Z,61.34
2019-02-23T06:54:42.538Z,61.61
2019-02-23T06:57:30.064Z,61.59
2019-02-23T07:00:17.916Z,61.66
2019-02-23T07:03:05.323Z,63.38
2019-02-23T07:05:52.951Z,63.06
2019-02-23T07:08:40.479Z,62.80
2019-02-23T07:11:27.700Z,62.55
2019-02-23T07:14:15.222Z,62.30
2019-02-23T07:17:04.953Z,62.37
2019-02-23T07:19:51.913Z,62.64
2019-02-23T07:22:39.041Z,62.79
2019-02-23T07:25:26.863Z,62.82
2019-02-23T07:28:14.196Z,63.03
2019-02-23T07:31:01.562Z,63.04
2019-02-23T07:33:48.591Z,63.01
2019-02-23T07:36:36.356Z,63.05
2019-02-23T07:39:23.998Z,62.92
2019-02-23T07:42:11.415Z,62.89
2019-02-23T07:44:58.835Z,62.66
2019-02-23T07:47:46.628Z,62.50
2019-02-23T07:50:34.498Z,62.04
2019-02-23T07:53:21.926Z,62.51
2019-02-23T07:56:09.143Z,62.14
2019-02-23T07:58:56.366Z,61.27
2019-02-23T08:01:44.093Z,61.68
2019-02-23T08:04:32.337Z,61.44
2019-02-23T08:07:19.661Z,61.13
2019-02-23T08:10:11.711Z,60.43
2019-02-23T08:12:59.322Z,60.17
2019-02-23T08:15:46.436Z,59.78
2019-02-23T08:18:33.862Z,59.42
2019-02-23T08:21:21.489Z,58.84
2019-02-23T08:24:08.711Z,58.77
2019-02-23T08:26:56.337Z,58.83
2019-02-23T08:29:43.453Z,58.13
2019-02-23T08:32:31.391Z,57.47
2019-02-23T08:35:18.917Z,57.97
2019-02-23T08:38:06.544Z,57.07
2019-02-23T08:40:53.598Z,56.96
2019-02-23T08:43:41.188Z,57.52
2019-02-23T08:46:28.994Z,57.80
2019-02-23T08:49:16.501Z,57.01
2019-02-23T08:52:04.908Z,54.74
2019-02-23T08:54:52.326Z,56.71
2019-02-23T08:57:39.842Z,56.43
2019-02-23T09:00:27.883Z,55.70
2019-02-23T09:03:15.407Z,56.61
2019-02-23T09:06:04.557Z,56.73
2019-02-23T09:08:51.693Z,56.37
2019-02-23T09:11:39.392Z,56.98
2019-02-23T09:14:27.363Z,56.56
2019-02-23T09:17:14.371Z,56.66
2019-02-23T09:20:01.692Z,55.73
2019-02-23T09:22:59.487Z,55.63
2019-02-23T09:25:38.178Z,55.38
2019-02-23T09:28:25.508Z,54.18
2019-02-23T09:31:12.788Z,56.55
2019-02-23T09:34:00.246Z,57.56
2019-02-23T09:36:47.765Z,57.43
2019-02-23T09:39:35.304Z,55.73
2019-02-23T09:42:23.147Z,55.23
2019-02-23T09:45:12.291Z,55.47
2019-02-23T09:47:59.216Z,53.85
2019-02-23T09:50:46.531Z,54.04
2019-02-23T09:53:34.262Z,52.97
2019-02-23T09:56:21.994Z,52.79
2019-02-23T09:59:09.316Z,52.75
2019-02-23T10:01:57.151Z,53.82
2019-02-23T10:04:44.783Z,53.90
2019-02-23T10:07:32.406Z,54.05
2019-02-23T10:10:19.525Z,52.96
2019-02-23T10:13:07.363Z,52.51
2019-02-23T10:15:55.007Z,52.78
2019-02-23T10:18:41.927Z,52.63
2019-02-23T10:21:29.844Z,51.62
2019-02-23T10:24:17.256Z,49.13
2019-02-23T10:27:04.786Z,51.44
2019-02-23T10:29:52.313Z,50.20
2019-02-23T10:32:39.837Z,50.08
2019-02-23T10:35:27.363Z,51.20
2019-02-23T10:38:14.794Z,51.76
2019-02-23T10:41:02.417Z,52.30
2019-02-23T10:43:49.638Z,50.15
2019-02-23T10:46:36.752Z,49.75
2019-02-23T10:49:24.165Z,51.88
2019-02-23T10:52:11.913Z,50.76
2019-02-23T10:54:59.033Z,50.30
2019-02-23T10:57:46.569Z,48.27
2019-02-23T11:00:34.077Z,48.57
2019-02-23T11:03:21.603Z,47.88
2019-02-23T11:06:09.661Z,49.86
2019-02-23T11:08:57.170Z,48.85
2019-02-23T11:11:44.901Z,49.09
2019-02-23T11:14:32.016Z,46.07
2019-02-23T11:17:19.849Z,46.69
2019-02-23T11:20:09.250Z,47.28
2019-02-23T11:22:56.645Z,45.68
2019-02-23T11:25:44.273Z,44.88
2019-02-23T11:28:31.801Z,40.69
2019-02-23T11:31:19.635Z,43.87
2019-02-23T11:34:07.061Z,42.81
2019-02-23T11:36:54.485Z,41.78
2019-02-23T11:39:41.703Z,41.71
2019-02-23T11:42:29.498Z,40.44
2019-02-23T11:45:16.957Z,42.97
2019-02-23T11:48:04.896Z,41.84
2019-02-23T11:50:52.523Z,40.39
2019-02-23T11:53:40.254Z,43.41
2019-02-23T11:56:27.622Z,43.80
2019-02-23T11:59:15.220Z,42.87
2019-02-23T12:02:02.314Z,41.10
2019-02-23T12:04:50.008Z,39.67
2019-02-23T12:07:37.993Z,41.94
2019-02-23T12:10:25.516Z,41.38
2019-02-23T12:13:13.349Z,40.96
2019-02-23T12:16:00.881Z,40.83
2019-02-23T12:18:48.415Z,41.74
2019-02-23T12:21:35.424Z,40.44
2019-02-23T12:24:23.152Z,41.85
2019-02-23T12:27:10.572Z,42.00
2019-02-23T12:29:58.507Z,41.35
2019-02-23T12:32:46.242Z,42.81
2019-02-23T12:35:33.879Z,40.14
2019-02-23T12:38:21.500Z,39.59
2019-02-23T12:41:09.027Z,39.28
2019-02-23T12:43:56.552Z,38.84
2019-02-23T12:46:44.280Z,41.21
2019-02-23T12:49:31.809Z,41.93
2019-02-23T12:52:19.135Z,41.33
2019-02-23T12:55:09.148Z,39.98
2019-02-23T12:57:56.745Z,40.34
2019-02-23T13:00:44.329Z,38.71
2019-02-23T13:03:31.698Z,37.33
2019-02-23T13:06:19.322Z,39.35
2019-02-23T13:09:20.262Z,38.19
2019-02-23T13:12:13.626Z,37.79
2019-02-23T13:15:04.433Z,37.65
2019-02-23T13:17:55.358Z,38.27
2019-02-23T13:21:00.268Z,38.62
2019-02-23T13:24:07.558Z,39.54
2019-02-23T13:27:01.029Z,40.03
2019-02-23T13:30:04.018Z,40.38
2019-02-23T13:33:00.473Z,41.38
2019-02-23T13:36:10.311Z,41.61
2019-02-23T13:39:07.145Z,41.08
2019-02-23T13:42:12.698Z,40.60
2019-02-23T13:45:06.367Z,41.12
2019-02-23T13:48:17.653Z,42.49
2019-02-23T13:51:35.894Z,41.93
2019-02-23T13:54:44.514Z,41.67
2019-02-23T13:57:53.139Z,43.14
2019-02-23T14:00:58.379Z,42.20
2019-02-23T14:04:05.462Z,41.97
2019-02-23T14:06:59.368Z,40.30
2019-02-23T14:10:15.842Z,39.04
2019-02-23T14:13:27.539Z,41.23
2019-02-23T14:16:42.609Z,40.29
2019-02-23T14:19:54.556Z,40.99
2019-02-23T14:23:07.326Z,41.00
2019-02-23T14:26:19.243Z,41.25
2019-02-23T14:29:24.567Z,40.50
2019-02-23T14:32:21.310Z,39.73
2019-02-23T14:35:20.615Z,39.97
2019-02-23T14:38:11.214Z,39.13
2019-02-23T14:41:04.279Z,39.66
2019-02-23T14:44:15.759Z,40.27
2019-02-23T14:47:12.441Z,41.22
2019-02-23T14:50:19.686Z,40.84
2019-02-23T14:53:22.379Z,42.37
2019-02-23T14:56:18.563Z,43.35
2019-02-23T14:59:31.620Z,42.12
2019-02-23T15:02:25.495Z,44.23
2019-02-23T15:05:36.779Z,45.65
2019-02-23T15:08:30.038Z,47.62
2019-02-23T15:11:35.432Z,46.08
2019-02-23T15:14:43.647Z,46.36
2019-02-23T15:17:39.518Z,45.55
2019-02-23T15:20:54.284Z,45.66
2019-02-23T15:24:03.227Z,45.87
2019-02-23T15:27:03.026Z,45.80
2019-02-23T15:29:53.113Z,44.65
2019-02-23T15:33:17.149Z,46.37
2019-02-23T15:36:25.481Z,45.09
2019-02-23T15:39:27.688Z,46.54
2019-02-23T15:42:53.231Z,47.52
2019-02-23T15:45:49.742Z,46.28
2019-02-23T15:49:01.650Z,45.60
2019-02-23T15:51:49.074Z,45.57
2019-02-23T15:54:36.277Z,44.05
2019-02-23T15:57:23.596Z,45.31
2019-02-23T16:00:11.638Z,45.54
2019-02-23T16:02:58.962Z,45.68
2019-02-23T16:05:46.383Z,45.83
2019-02-23T16:08:33.916Z,46.05
2019-02-23T16:11:21.640Z,46.10
2019-02-23T16:14:08.893Z,46.27
2019-02-23T16:16:56.283Z,46.26
2019-02-23T16:19:43.913Z,45.79
2019-02-23T16:22:32.776Z,46.16
2019-02-23T16:25:19.827Z,46.13
2019-02-23T16:28:07.210Z,45.68
2019-02-23T16:30:54.737Z,45.93
2019-02-23T16:33:42.672Z,46.26
2019-02-23T16:36:30.099Z,46.26
2019-02-23T16:39:17.931Z,45.83
2019-02-23T16:42:05.357Z,46.29
2019-02-23T16:44:52.879Z,46.32
2019-02-23T16:47:40.611Z,46.13
2019-02-23T16:50:28.033Z,46.24
2019-02-23T16:53:15.875Z,45.93
2019-02-23T16:56:03.088Z,46.10
2019-02-23T16:58:50.512Z,46.81
2019-02-23T17:01:37.633Z,47.42
2019-02-23T17:04:25.068Z,47.61
2019-02-23T17:07:12.579Z,47.60
2019-02-23T17:10:00.638Z,47.83
2019-02-23T17:12:47.937Z,47.72
2019-02-23T17:15:35.261Z,47.86
2019-02-23T17:18:23.099Z,47.91
2019-02-23T17:21:10.058Z,47.72
2019-02-23T17:23:57.534Z,47.64
2019-02-23T17:26:44.863Z,47.81
2019-02-23T17:29:32.176Z,47.72
2019-02-23T17:32:19.804Z,47.69
2019-02-23T17:35:07.566Z,47.62
2019-02-23T17:37:55.275Z,47.80
2019-02-23T17:40:42.699Z,48.50
2019-02-23T17:43:29.706Z,48.56
2019-02-23T17:46:17.234Z,48.80
2019-02-23T17:49:04.764Z,48.80
2019-02-23T17:51:52.499Z,49.06
2019-02-23T17:54:40.230Z,49.23
2019-02-23T17:57:27.658Z,49.43
2019-02-23T18:00:16.812Z,49.50
2019-02-23T18:03:04.340Z,49.48
2019-02-23T18:05:52.171Z,49.32
2019-02-23T18:08:39.706Z,49.61
2019-02-23T18:11:27.123Z,49.69
2019-02-23T18:14:14.652Z,49.50
2019-02-23T18:17:02.175Z,49.43
2019-02-23T18:19:49.544Z,51.53
2019-02-23T18:22:36.975Z,53.14
2019-02-23T18:25:24.552Z,52.37
2019-02-23T18:28:12.181Z,51.84
2019-02-23T18:30:59.808Z,51.61
2019-02-23T18:33:47.438Z,51.43
2019-02-23T18:36:34.455Z,51.80
2019-02-23T18:39:21.876Z,52.29
2019-02-23T18:42:09.407Z,52.09
2019-02-23T18:44:57.235Z,52.11
2019-02-23T18:47:44.866Z,52.18
2019-02-23T18:50:32.495Z,52.16
2019-02-23T18:53:19.534Z,52.11
2019-02-23T18:56:07.443Z,52.16
2019-02-23T18:58:54.765Z,51.94
2019-02-23T19:01:42.499Z,52.02
2019-02-23T19:04:29.859Z,52.15
2019-02-23T19:07:17.139Z,52.17
2019-02-23T19:10:07.229Z,52.35
2019-02-23T19:12:54.447Z,52.44
2019-02-23T19:15:41.896Z,52.89
2019-02-23T19:18:29.509Z,52.77
2019-02-23T19:21:17.234Z,52.90
2019-02-23T19:24:04.842Z,52.96
2019-02-23T19:26:52.724Z,52.97
2019-02-23T19:29:40.528Z,52.87
2019-02-23T19:32:28.598Z,53.61
2019-02-23T19:35:15.890Z,55.43
2019-02-23T19:38:03.636Z,56.46
2019-02-23T19:40:50.942Z,56.24
2019-02-23T19:43:38.572Z,55.37
2019-02-23T19:46:26.710Z,54.42
2019-02-23T19:49:13.624Z,54.15
2019-02-23T19:52:01.155Z,56.42
2019-02-23T19:54:48.585Z,57.19
2019-02-23T19:57:36.205Z,56.20
2019-02-23T20:00:23.446Z,55.82
2019-02-23T20:03:11.049Z,55.78
2019-02-23T20:05:58.393Z,55.26
2019-02-23T20:08:45.801Z,55.02
2019-02-23T20:11:33.640Z,55.31
2019-02-23T20:14:21.464Z,55.02
2019-02-23T20:17:09.194Z,55.87
2019-02-23T20:19:56.622Z,55.23
2019-02-23T20:22:44.868Z,54.49
2019-02-23T20:25:32.390Z,54.39
2019-02-23T20:28:19.714Z,54.58
2019-02-23T20:31:07.240Z,55.00
2019-02-23T20:33:54.867Z,55.05
2019-02-23T20:36:42.861Z,54.94
2019-02-23T20:39:30.229Z,55.17
2019-02-23T20:42:18.062Z,55.20
2019-02-23T20:45:07.956Z,55.53
2019-02-23T20:47:55.407Z,55.62
2019-02-23T20:50:43.000Z,55.40
2019-02-23T20:53:30.726Z,55.34
2019-02-23T20:56:17.945Z,55.23
2019-02-23T20:59:05.371Z,55.26
2019-02-23T21:01:55.311Z,54.97
2019-02-23T21:04:42.570Z,54.37
2019-02-23T21:07:30.307Z,54.43
2019-02-23T21:10:18.037Z,54.64
2019-02-23T21:13:05.458Z,54.74
2019-02-23T21:15:52.988Z,55.04
2019-02-23T21:18:40.822Z,55.31
2019-02-23T21:21:28.557Z,55.99
2019-02-23T21:24:16.279Z,55.32
2019-02-23T21:27:03.807Z,54.79
2019-02-23T21:29:50.938Z,54.68
2019-02-23T21:32:38.748Z,54.48
2019-02-23T21:35:25.876Z,55.26
2019-02-23T21:38:13.510Z,55.88
2019-02-23T21:41:01.132Z,56.57
2019-02-23T21:43:48.147Z,58.49
2019-02-23T21:46:35.818Z,57.76
2019-02-23T21:49:23.714Z,57.09
2019-02-23T21:52:11.454Z,56.24
2019-02-23T21:54:58.778Z,56.19
2019-02-23T21:57:46.257Z,56.17
2019-02-23T22:00:33.921Z,56.28
2019-02-23T22:03:21.350Z,55.97
2019-02-23T22:06:08.667Z,55.86
2019-02-23T22:08:56.502Z,55.81
2019-02-23T22:11:44.136Z,55.84
2019-02-23T22:14:31.863Z,56.00
2019-02-23T22:17:19.084Z,56.08
2019-02-23T22:20:07.385Z,56.24
2019-02-23T22:22:54.953Z,56.24
2019-02-23T22:25:42.275Z,55.97
2019-02-23T22:28:29.706Z,56.03
2019-02-23T22:31:17.237Z,55.99
2019-02-23T22:34:04.801Z,55.97
2019-02-23T22:36:51.869Z,55.93
2019-02-23T22:39:40.520Z,55.79
2019-02-23T22:42:28.355Z,55.65
2019-02-23T22:45:16.187Z,55.78
2019-02-23T22:48:04.020Z,55.72
2019-02-23T22:50:51.650Z,55.66
2019-02-23T22:53:40.831Z,55.84
2019-02-23T22:56:28.138Z,55.95
2019-02-23T22:59:16.491Z,56.50
2019-02-23T23:02:04.115Z,56.15
2019-02-23T23:04:51.339Z,55.95
2019-02-23T23:07:38.447Z,55.87
2019-02-23T23:10:26.076Z,55.57
2019-02-23T23:13:13.658Z,55.64
2019-02-23T23:16:01.436Z,56.07
2019-02-23T23:18:48.600Z,56.17
2019-02-23T23:21:36.083Z,56.29
2019-02-23T23:24:24.014Z,56.57
2019-02-23T23:27:11.555Z,56.88
2019-02-23T23:29:58.568Z,57.01
2019-02-23T23:32:46.081Z,56.70
2019-02-23T23:35:33.710Z,56.49
2019-02-23T23:38:21.135Z,56.32
2019-02-23T23:41:08.660Z,56.21
2019-02-23T23:43:56.290Z,56.36
2019-02-23T23:46:44.982Z,56.25
2019-02-23T23:49:32.166Z,56.49
2019-02-23T23:52:19.485Z,56.81
2019-02-23T23:55:07.451Z,56.57
2019-02-23T23:57:58.200Z,56.20
